createdAt,value
2018-11-11T00:00:14.386Z,12.55
2018-11-11T00:01:21.287Z,12.56
2018-11-11T00:02:28.103Z,12.55
2018-11-11T00:03:34.919Z,12.55
2018-11-11T00:04:41.769Z,12.56
2018-11-11T00:05:48.491Z,12.56
2018-11-11T00:06:55.405Z,12.54
2018-11-11T00:08:02.158Z,12.55
2018-11-11T00:09:09.166Z,12.54
2018-11-11T00:10:16.174Z,12.54
2018-11-11T00:11:22.906Z,12.53
2018-11-11T00:12:29.630Z,12.53
2018-11-11T00:13:36.405Z,12.52
2018-11-11T00:14:43.172Z,12.53
2018-11-11T00:15:49.974Z,12.52
2018-11-11T00:16:56.763Z,12.52
2018-11-11T00:18:03.525Z,12.51
2018-11-11T00:19:10.287Z,12.50
2018-11-11T00:20:17.085Z,12.51
2018-11-11T00:21:23.946Z,12.49
2018-11-11T00:22:30.867Z,12.49
2018-11-11T00:23:37.666Z,12.49
2018-11-11T00:24:44.600Z,12.49
2018-11-11T00:25:51.415Z,12.49
2018-11-11T00:26:58.160Z,12.48
2018-11-11T00:28:04.993Z,12.48
2018-11-11T00:29:11.849Z,12.48
2018-11-11T00:30:18.702Z,12.46
2018-11-11T00:31:25.687Z,12.44
2018-11-11T00:32:32.516Z,12.45
2018-11-11T00:33:39.386Z,12.44
2018-11-11T00:34:46.275Z,12.45
2018-11-11T00:35:53.081Z,12.44
2018-11-11T00:36:59.979Z,12.43
2018-11-11T00:38:06.804Z,12.43
2018-11-11T00:39:14.574Z,12.43
2018-11-11T00:40:20.465Z,12.43
2018-11-11T00:41:27.326Z,12.41
2018-11-11T00:42:34.122Z,12.42
2018-11-11T00:43:40.878Z,12.41
2018-11-11T00:44:47.672Z,12.39
2018-11-11T00:45:54.552Z,12.40
2018-11-11T00:47:01.367Z,12.40
2018-11-11T00:48:08.477Z,12.40
2018-11-11T00:49:15.232Z,12.38
2018-11-11T00:50:22.072Z,12.39
2018-11-11T00:51:28.879Z,12.38
2018-11-11T00:52:35.694Z,12.38
2018-11-11T00:53:42.557Z,12.38
2018-11-11T00:54:49.383Z,12.39
2018-11-11T00:55:56.105Z,12.38
2018-11-11T00:57:02.877Z,12.37
2018-11-11T00:58:09.747Z,12.36
2018-11-11T00:59:16.686Z,12.36
2018-11-11T01:00:23.453Z,12.34
2018-11-11T01:01:30.293Z,12.35
2018-11-11T01:02:37.082Z,12.35
2018-11-11T01:03:43.924Z,12.34
2018-11-11T01:04:50.826Z,12.35
2018-11-11T01:05:57.597Z,12.34
2018-11-11T01:07:04.415Z,12.33
2018-11-11T01:08:11.218Z,12.32
2018-11-11T01:09:17.998Z,12.32
2018-11-11T01:10:24.782Z,12.32
2018-11-11T01:11:31.506Z,12.32
2018-11-11T01:12:38.286Z,12.32
2018-11-11T01:13:45.279Z,12.32
2018-11-11T01:14:52.123Z,12.31
2018-11-11T01:15:58.905Z,12.31
2018-11-11T01:17:05.637Z,12.30
2018-11-11T01:18:12.746Z,12.31
2018-11-11T01:19:19.502Z,12.29
2018-11-11T01:20:26.301Z,12.29
2018-11-11T01:21:33.018Z,12.30
2018-11-11T01:22:39.747Z,12.29
2018-11-11T01:23:46.573Z,12.28
2018-11-11T01:24:53.342Z,12.27
2018-11-11T01:26:00.088Z,12.29
2018-11-11T01:27:07.114Z,12.27
2018-11-11T01:28:13.871Z,12.27
2018-11-11T01:29:20.658Z,12.27
2018-11-11T01:30:27.503Z,12.24
2018-11-11T01:31:34.202Z,12.25
2018-11-11T01:32:40.910Z,12.25
2018-11-11T01:33:47.618Z,12.25
2018-11-11T01:34:54.346Z,12.25
2018-11-11T01:36:01.223Z,12.23
2018-11-11T01:37:08.354Z,12.23
2018-11-11T01:38:15.091Z,12.23
2018-11-11T01:39:21.814Z,12.21
2018-11-11T01:40:28.587Z,12.22
2018-11-11T01:41:35.387Z,12.20
2018-11-11T01:42:42.289Z,12.20
2018-11-11T01:43:49.156Z,12.20
2018-11-11T01:44:55.921Z,12.21
2018-11-11T01:46:02.654Z,12.20
2018-11-11T01:47:09.390Z,12.19
2018-11-11T01:48:16.174Z,12.20
2018-11-11T01:49:22.879Z,12.18
2018-11-11T01:50:29.644Z,12.18
2018-11-11T01:51:36.383Z,12.17
2018-11-11T01:52:43.223Z,12.17
2018-11-11T01:53:50.040Z,12.15
2018-11-11T01:54:56.845Z,12.17
2018-11-11T01:56:03.653Z,12.16
2018-11-11T01:57:10.422Z,12.15
2018-11-11T01:58:17.212Z,12.15
2018-11-11T01:59:23.970Z,12.16
2018-11-11T02:00:30.738Z,12.15
2018-11-11T02:01:37.523Z,12.14
2018-11-11T02:02:44.378Z,12.13
2018-11-11T02:03:51.358Z,12.12
2018-11-11T02:04:58.142Z,12.14
2018-11-11T02:06:04.945Z,12.11
2018-11-11T02:07:11.712Z,12.13
2018-11-11T02:08:18.563Z,12.11
2018-11-11T02:09:25.323Z,12.09
2018-11-11T02:10:32.095Z,12.11
2018-11-11T02:11:38.967Z,12.10
2018-11-11T02:12:45.860Z,12.10
2018-11-11T02:13:52.619Z,12.09
2018-11-11T02:14:59.412Z,12.09
2018-11-11T02:16:06.271Z,12.08
2018-11-11T02:17:13.172Z,12.08
2018-11-11T02:18:19.983Z,12.08
2018-11-11T02:19:26.872Z,12.06
2018-11-11T02:20:33.686Z,12.07
2018-11-11T02:21:40.564Z,12.07
2018-11-11T02:22:47.382Z,12.05
2018-11-11T02:23:54.342Z,12.06
2018-11-11T02:25:01.150Z,12.05
2018-11-11T02:26:07.898Z,12.05
2018-11-11T02:27:14.629Z,12.04
2018-11-11T02:28:21.393Z,12.05
2018-11-11T02:29:28.236Z,12.03
2018-11-11T02:30:35.038Z,12.02
2018-11-11T02:31:41.828Z,12.02
2018-11-11T02:32:48.617Z,12.03
2018-11-11T02:33:55.374Z,12.01
2018-11-11T02:35:02.137Z,12.02
2018-11-11T02:36:09.286Z,12.01
2018-11-11T02:37:16.204Z,12.01
2018-11-11T02:38:22.961Z,12.00
2018-11-11T02:39:29.719Z,11.99
2018-11-11T02:40:36.577Z,12.00
2018-11-11T02:41:43.333Z,11.99
2018-11-11T02:42:50.150Z,11.98
2018-11-11T02:43:57.006Z,11.97
2018-11-11T02:45:03.856Z,11.96
2018-11-11T02:46:10.853Z,11.96
2018-11-11T02:47:17.657Z,11.95
2018-11-11T02:48:24.543Z,11.95
2018-11-11T02:49:31.310Z,11.95
2018-11-11T02:50:38.154Z,11.94
2018-11-11T02:51:44.973Z,11.94
2018-11-11T02:52:51.882Z,11.95
2018-11-11T02:53:58.776Z,11.94
2018-11-11T02:55:05.847Z,11.93
2018-11-11T02:56:12.554Z,11.92
2018-11-11T02:57:19.365Z,11.92
2018-11-11T02:58:26.142Z,11.91
2018-11-11T02:59:32.983Z,11.92
2018-11-11T03:00:39.791Z,11.90
2018-11-11T03:01:46.680Z,11.92
2018-11-11T03:02:53.547Z,11.91
2018-11-11T03:04:00.435Z,11.89
2018-11-11T03:05:07.289Z,11.88
2018-11-11T03:06:14.402Z,11.88
2018-11-11T03:07:20.848Z,11.88
2018-11-11T03:08:27.671Z,11.88
2018-11-11T03:09:34.442Z,11.87
2018-11-11T03:10:41.233Z,11.86
2018-11-11T03:11:48.059Z,11.86
2018-11-11T03:12:54.819Z,11.87
2018-11-11T03:14:01.654Z,11.85
2018-11-11T03:15:08.586Z,11.84
2018-11-11T03:16:15.514Z,11.83
2018-11-11T03:17:22.334Z,11.82
2018-11-11T03:18:29.166Z,11.82
2018-11-11T03:19:35.906Z,11.82
2018-11-11T03:20:42.710Z,11.81
2018-11-11T03:21:49.595Z,11.81
2018-11-11T03:22:56.349Z,11.79
2018-11-11T03:24:03.111Z,11.79
2018-11-11T03:25:09.882Z,11.79
2018-11-11T03:26:16.978Z,11.78
2018-11-11T03:27:23.774Z,11.79
2018-11-11T03:28:30.587Z,11.76
2018-11-11T03:29:37.358Z,11.76
2018-11-11T03:30:44.175Z,11.76
2018-11-11T03:31:50.990Z,11.77
2018-11-11T03:32:57.766Z,11.76
2018-11-11T03:34:04.575Z,11.76
2018-11-11T03:35:11.350Z,11.74
2018-11-11T03:36:18.357Z,11.74
2018-11-11T03:37:25.474Z,11.74
2018-11-11T03:38:32.218Z,11.74
2018-11-11T03:39:38.982Z,11.73
2018-11-11T03:40:45.717Z,11.73
2018-11-11T03:41:52.477Z,11.72
2018-11-11T03:42:59.251Z,11.72
2018-11-11T03:44:06.010Z,11.72
2018-11-11T03:45:12.862Z,11.72
2018-11-11T03:46:20.012Z,11.72
2018-11-11T03:47:27.137Z,11.71
2018-11-11T03:48:33.927Z,11.71
2018-11-11T03:49:40.693Z,11.70
2018-11-11T03:50:47.514Z,11.69
2018-11-11T03:51:54.294Z,11.69
2018-11-11T03:53:01.041Z,11.69
2018-11-11T03:54:07.818Z,11.69
2018-11-11T03:55:14.630Z,11.70
2018-11-11T03:56:21.674Z,11.68
2018-11-11T03:57:28.459Z,11.67
2018-11-11T03:58:35.262Z,11.66
2018-11-11T03:59:42.087Z,11.66
2018-11-11T04:00:48.835Z,11.66
2018-11-11T04:01:55.590Z,11.67
2018-11-11T04:03:02.326Z,11.66
2018-11-11T04:04:09.136Z,11.67
2018-11-11T04:05:16.372Z,11.65
2018-11-11T04:06:22.650Z,11.64
2018-11-11T04:07:29.413Z,11.65
2018-11-11T04:08:36.223Z,11.66
2018-11-11T04:09:43.015Z,11.65
2018-11-11T04:10:49.849Z,11.62
2018-11-11T04:11:56.579Z,11.63
2018-11-11T04:13:03.342Z,11.62
2018-11-11T04:14:10.135Z,11.62
2018-11-11T04:15:17.009Z,11.62
2018-11-11T04:16:23.769Z,11.61
2018-11-11T04:17:30.632Z,11.61
2018-11-11T04:18:37.416Z,11.61
2018-11-11T04:19:44.203Z,11.60
2018-11-11T04:20:51.023Z,11.61
2018-11-11T04:21:57.854Z,11.60
2018-11-11T04:23:04.859Z,11.60
2018-11-11T04:24:11.662Z,11.59
2018-11-11T04:25:18.519Z,11.60
2018-11-11T04:26:25.395Z,11.58
2018-11-11T04:27:32.230Z,11.59
2018-11-11T04:28:38.986Z,11.57
2018-11-11T04:29:45.794Z,11.57
2018-11-11T04:30:52.641Z,11.56
2018-11-11T04:31:59.569Z,11.57
2018-11-11T04:33:06.358Z,11.58
2018-11-11T04:34:13.111Z,11.57
2018-11-11T04:35:19.977Z,11.57
2018-11-11T04:36:26.761Z,11.55
2018-11-11T04:37:33.643Z,11.54
2018-11-11T04:38:40.419Z,11.55
2018-11-11T04:39:47.190Z,11.55
2018-11-11T04:40:53.987Z,11.54
2018-11-11T04:42:00.792Z,11.54
2018-11-11T04:43:07.671Z,11.54
2018-11-11T04:44:14.424Z,11.54
2018-11-11T04:45:21.229Z,11.53
2018-11-11T04:46:28.023Z,11.52
2018-11-11T04:47:34.825Z,11.52
2018-11-11T04:48:41.642Z,11.52
2018-11-11T04:49:48.450Z,11.52
2018-11-11T04:50:55.255Z,11.51
2018-11-11T04:52:02.047Z,11.51
2018-11-11T04:53:09.084Z,11.51
2018-11-11T04:54:15.878Z,11.51
2018-11-11T04:55:22.663Z,11.50
2018-11-11T04:56:29.569Z,11.49
2018-11-11T04:57:36.295Z,11.50
2018-11-11T04:58:43.178Z,11.48
2018-11-11T04:59:49.999Z,11.48
2018-11-11T05:00:56.775Z,11.47
2018-11-11T05:02:03.582Z,11.48
2018-11-11T05:03:14.614Z,11.46
2018-11-11T05:04:17.350Z,11.48
2018-11-11T05:05:24.075Z,11.47
2018-11-11T05:06:30.846Z,11.47
2018-11-11T05:07:37.658Z,11.47
2018-11-11T05:08:44.806Z,11.47
2018-11-11T05:09:51.588Z,11.48
2018-11-11T05:10:58.366Z,11.46
2018-11-11T05:12:05.141Z,11.47
2018-11-11T05:13:11.864Z,11.47
2018-11-11T05:14:18.662Z,11.46
2018-11-11T05:15:25.438Z,11.44
2018-11-11T05:16:32.227Z,11.43
2018-11-11T05:17:39.030Z,11.43
2018-11-11T05:18:45.860Z,11.43
2018-11-11T05:19:52.603Z,11.42
2018-11-11T05:20:59.354Z,11.45
2018-11-11T05:22:06.067Z,11.42
2018-11-11T05:23:12.960Z,11.42
2018-11-11T05:24:19.762Z,11.42
2018-11-11T05:25:26.491Z,11.42
2018-11-11T05:26:33.327Z,11.41
2018-11-11T05:27:40.294Z,11.41
2018-11-11T05:28:47.374Z,11.41
2018-11-11T05:29:54.219Z,11.40
2018-11-11T05:31:00.949Z,11.41
2018-11-11T05:32:07.751Z,11.41
2018-11-11T05:33:14.630Z,11.40
2018-11-11T05:34:21.372Z,11.40
2018-11-11T05:35:28.095Z,11.39
2018-11-11T05:36:34.884Z,11.40
2018-11-11T05:37:41.670Z,11.38
2018-11-11T05:38:48.798Z,11.36
2018-11-11T05:39:55.542Z,11.39
2018-11-11T05:41:02.298Z,11.37
2018-11-11T05:42:09.231Z,11.39
2018-11-11T05:43:15.974Z,11.39
2018-11-11T05:44:22.799Z,11.38
2018-11-11T05:45:29.634Z,11.38
2018-11-11T05:46:36.434Z,11.38
2018-11-11T05:47:43.391Z,11.37
2018-11-11T05:48:50.150Z,11.37
2018-11-11T05:49:56.911Z,11.37
2018-11-11T05:51:03.673Z,11.36
2018-11-11T05:52:10.501Z,11.36
2018-11-11T05:53:17.311Z,11.35
2018-11-11T05:54:24.198Z,11.35
2018-11-11T05:55:31.076Z,11.36
2018-11-11T05:56:37.942Z,11.36
2018-11-11T05:57:44.775Z,11.34
2018-11-11T05:58:51.609Z,11.34
2018-11-11T05:59:58.379Z,11.35
2018-11-11T06:01:05.137Z,11.35
2018-11-11T06:02:11.960Z,11.35
2018-11-11T06:03:18.745Z,11.35
2018-11-11T06:04:25.534Z,11.35
2018-11-11T06:05:32.254Z,11.34
2018-11-11T06:06:39.023Z,11.35
2018-11-11T06:07:45.840Z,11.35
2018-11-11T06:08:52.591Z,11.35
2018-11-11T06:09:59.356Z,11.33
2018-11-11T06:11:06.169Z,11.35
2018-11-11T06:12:13.028Z,11.35
2018-11-11T06:13:19.809Z,11.34
2018-11-11T06:14:26.611Z,11.35
2018-11-11T06:15:33.463Z,11.34
2018-11-11T06:16:40.254Z,11.34
2018-11-11T06:17:46.983Z,11.34
2018-11-11T06:18:53.727Z,11.32
2018-11-11T06:20:00.541Z,11.33
2018-11-11T06:21:07.658Z,11.33
2018-11-11T06:22:14.401Z,11.33
2018-11-11T06:23:21.145Z,11.32
2018-11-11T06:24:27.961Z,11.33
2018-11-11T06:25:34.779Z,11.32
2018-11-11T06:26:41.521Z,11.31
2018-11-11T06:27:48.358Z,11.33
2018-11-11T06:28:55.110Z,11.32
2018-11-11T06:30:02.042Z,11.34
2018-11-11T06:31:08.742Z,11.32
2018-11-11T06:32:15.487Z,11.34
2018-11-11T06:33:22.186Z,11.35
2018-11-11T06:34:28.984Z,11.35
2018-11-11T06:35:35.866Z,11.35
2018-11-11T06:36:42.638Z,11.34
2018-11-11T06:37:49.431Z,11.34
2018-11-11T06:38:56.367Z,11.34
2018-11-11T06:40:03.141Z,11.37
2018-11-11T06:41:09.994Z,11.35
2018-11-11T06:42:16.795Z,11.35
2018-11-11T06:43:23.640Z,11.35
2018-11-11T06:44:30.513Z,11.36
2018-11-11T06:45:37.470Z,11.36
2018-11-11T06:46:44.278Z,11.36
2018-11-11T06:47:51.106Z,11.35
2018-11-11T06:48:58.207Z,11.35
2018-11-11T06:50:05.155Z,11.35
2018-11-11T06:51:11.951Z,11.34
2018-11-11T06:52:18.866Z,11.34
2018-11-11T06:53:25.719Z,11.34
2018-11-11T06:54:32.586Z,11.33
2018-11-11T06:55:39.369Z,11.34
2018-11-11T06:56:46.249Z,11.34
2018-11-11T06:57:53.055Z,11.33
2018-11-11T06:59:00.634Z,11.32
2018-11-11T07:00:06.985Z,11.33
2018-11-11T07:01:13.955Z,11.33
2018-11-11T07:02:20.862Z,11.33
2018-11-11T07:03:27.827Z,11.35
2018-11-11T07:04:34.555Z,11.33
2018-11-11T07:05:41.307Z,11.32
2018-11-11T07:06:48.201Z,11.33
2018-11-11T07:07:54.989Z,11.33
2018-11-11T07:09:01.835Z,11.34
2018-11-11T07:10:08.673Z,11.33
2018-11-11T07:11:15.593Z,11.33
2018-11-11T07:12:22.752Z,11.34
2018-11-11T07:13:29.641Z,11.33
2018-11-11T07:14:36.484Z,11.33
2018-11-11T07:15:43.336Z,11.34
2018-11-11T07:16:50.221Z,11.34
2018-11-11T07:17:57.046Z,11.35
2018-11-11T07:19:03.834Z,11.34
2018-11-11T07:20:10.735Z,11.33
2018-11-11T07:21:17.646Z,11.32
2018-11-11T07:22:24.454Z,11.32
2018-11-11T07:23:31.247Z,11.34
2018-11-11T07:24:38.022Z,11.34
2018-11-11T07:25:44.863Z,11.34
2018-11-11T07:26:51.687Z,11.33
2018-11-11T07:27:58.584Z,11.33
2018-11-11T07:29:05.383Z,11.33
2018-11-11T07:30:12.481Z,11.33
2018-11-11T07:31:19.324Z,11.33
2018-11-11T07:32:26.209Z,11.33
2018-11-11T07:33:33.210Z,11.33
2018-11-11T07:34:40.087Z,11.33
2018-11-11T07:35:46.921Z,11.35
2018-11-11T07:36:53.746Z,11.34
2018-11-11T07:38:00.771Z,11.33
2018-11-11T07:39:07.738Z,11.33
2018-11-11T07:40:14.735Z,11.33
2018-11-11T07:41:21.598Z,11.33
2018-11-11T07:42:28.469Z,11.34
2018-11-11T07:43:35.286Z,11.33
2018-11-11T07:44:42.250Z,11.32
2018-11-11T07:45:49.252Z,11.32
2018-11-11T07:46:55.855Z,11.32
2018-11-11T07:48:02.729Z,11.34
2018-11-11T07:49:09.655Z,11.33
2018-11-11T07:50:16.430Z,11.34
2018-11-11T07:51:23.272Z,11.34
2018-11-11T07:52:30.062Z,11.33
2018-11-11T07:53:36.877Z,11.35
2018-11-11T07:54:43.778Z,11.34
2018-11-11T07:55:50.628Z,11.33
2018-11-11T07:56:57.401Z,11.33
2018-11-11T07:58:04.459Z,11.33
2018-11-11T07:59:11.395Z,11.34
2018-11-11T08:00:18.224Z,11.34
2018-11-11T08:01:25.022Z,11.35
2018-11-11T08:02:31.855Z,11.35
2018-11-11T08:03:38.671Z,11.33
2018-11-11T08:04:46.362Z,11.34
2018-11-11T08:05:52.171Z,11.35
2018-11-11T08:06:59.035Z,11.35
2018-11-11T08:08:05.827Z,11.36
2018-11-11T08:09:12.614Z,11.33
2018-11-11T08:10:19.487Z,11.35
2018-11-11T08:11:26.446Z,11.34
2018-11-11T08:12:33.584Z,11.34
2018-11-11T08:13:40.425Z,11.35
2018-11-11T08:14:47.254Z,11.35
2018-11-11T08:15:54.107Z,11.35
2018-11-11T08:17:00.954Z,11.35
2018-11-11T08:18:07.868Z,11.35
2018-11-11T08:19:14.730Z,11.36
2018-11-11T08:20:21.538Z,11.36
2018-11-11T08:21:28.326Z,11.35
2018-11-11T08:22:35.251Z,11.35
2018-11-11T08:23:43.150Z,11.36
2018-11-11T08:24:48.973Z,11.35
2018-11-11T08:25:55.824Z,11.35
2018-11-11T08:27:02.694Z,11.36
2018-11-11T08:28:09.592Z,11.36
2018-11-11T08:29:16.422Z,11.36
2018-11-11T08:30:27.198Z,11.36
2018-11-11T08:31:30.536Z,11.37
2018-11-11T08:32:37.362Z,11.36
2018-11-11T08:33:44.318Z,11.37
2018-11-11T08:34:51.160Z,11.36
2018-11-11T08:35:58.043Z,11.36
2018-11-11T08:37:04.879Z,11.35
2018-11-11T08:38:11.681Z,11.37
2018-11-11T08:39:18.470Z,11.37
2018-11-11T08:40:25.366Z,11.36
2018-11-11T08:41:32.225Z,11.37
2018-11-11T08:42:39.022Z,11.38
2018-11-11T08:43:45.827Z,11.37
2018-11-11T08:44:52.630Z,11.37
2018-11-11T08:45:59.451Z,11.37
2018-11-11T08:47:06.419Z,11.37
2018-11-11T08:48:13.340Z,11.38
2018-11-11T08:49:20.178Z,11.38
2018-11-11T08:50:27.007Z,11.38
2018-11-11T08:51:33.795Z,11.38
2018-11-11T08:52:40.603Z,11.39
2018-11-11T08:53:47.753Z,11.39
2018-11-11T08:54:54.621Z,11.39
2018-11-11T08:56:01.515Z,11.39
2018-11-11T08:57:08.247Z,11.39
2018-11-11T08:58:15.054Z,11.40
2018-11-11T08:59:21.920Z,11.40
2018-11-11T09:00:28.805Z,11.40
2018-11-11T09:01:35.674Z,11.40
2018-11-11T09:02:42.497Z,11.40
2018-11-11T09:03:49.336Z,11.41
2018-11-11T09:04:56.481Z,11.41
2018-11-11T09:06:03.280Z,11.40
2018-11-11T09:07:10.094Z,11.41
2018-11-11T09:08:16.843Z,11.41
2018-11-11T09:09:23.613Z,11.41
2018-11-11T09:10:30.417Z,11.41
2018-11-11T09:11:37.322Z,11.41
2018-11-11T09:12:44.130Z,11.41
2018-11-11T09:13:50.932Z,11.42
2018-11-11T09:14:57.794Z,11.42
2018-11-11T09:16:04.594Z,11.42
2018-11-11T09:17:11.396Z,11.42
2018-11-11T09:18:18.234Z,11.42
2018-11-11T09:19:25.030Z,11.43
2018-11-11T09:20:31.829Z,11.42
2018-11-11T09:21:38.611Z,11.42
2018-11-11T09:22:45.357Z,11.43
2018-11-11T09:23:52.213Z,11.43
2018-11-11T09:24:59.026Z,11.44
2018-11-11T09:26:05.811Z,11.45
2018-11-11T09:27:12.643Z,11.45
2018-11-11T09:28:19.566Z,11.45
2018-11-11T09:29:26.445Z,11.47
2018-11-11T09:30:33.290Z,11.44
2018-11-11T09:31:39.979Z,11.46
2018-11-11T09:32:46.724Z,11.46
2018-11-11T09:33:53.642Z,11.47
2018-11-11T09:35:00.424Z,11.47
2018-11-11T09:36:07.165Z,11.48
2018-11-11T09:37:14.321Z,11.48
2018-11-11T09:38:21.205Z,11.48
2018-11-11T09:39:27.996Z,11.49
2018-11-11T09:40:34.770Z,11.50
2018-11-11T09:41:41.601Z,11.49
2018-11-11T09:42:48.365Z,11.51
2018-11-11T09:43:55.275Z,11.51
2018-11-11T09:45:02.128Z,11.51
2018-11-11T09:46:09.202Z,11.52
2018-11-11T09:47:16.034Z,11.53
2018-11-11T09:48:22.963Z,11.53
2018-11-11T09:49:29.766Z,11.53
2018-11-11T09:50:36.850Z,11.54
2018-11-11T09:51:44.194Z,11.55
2018-11-11T09:52:51.063Z,11.55
2018-11-11T09:53:57.759Z,11.56
2018-11-11T09:55:05.301Z,11.56
2018-11-11T09:56:11.666Z,11.58
2018-11-11T09:57:17.988Z,11.60
2018-11-11T09:58:24.836Z,11.59
2018-11-11T09:59:31.796Z,11.60
2018-11-11T10:00:38.682Z,11.60
2018-11-11T10:01:45.525Z,11.62
2018-11-11T10:02:52.419Z,11.61
2018-11-11T10:03:59.546Z,11.62
2018-11-11T10:05:06.595Z,11.62
2018-11-11T10:06:13.668Z,11.63
2018-11-11T10:07:20.575Z,11.66
2018-11-11T10:08:27.657Z,11.66
2018-11-11T10:09:34.732Z,11.66
2018-11-11T10:11:48.218Z,11.66
2018-11-11T10:14:00.934Z,11.68
2018-11-11T10:15:08.063Z,11.69
2018-11-11T10:16:15.079Z,11.72
2018-11-11T10:17:21.967Z,11.72
2018-11-11T10:18:28.991Z,11.72
2018-11-11T10:19:35.749Z,11.75
2018-11-11T10:20:52.402Z,11.74
2018-11-11T10:21:59.411Z,11.76
2018-11-11T10:23:05.379Z,11.76
2018-11-11T10:24:12.369Z,11.77
2018-11-11T10:25:19.312Z,11.78
2018-11-11T10:26:26.373Z,11.78
2018-11-11T10:27:33.002Z,11.79
2018-11-11T10:28:39.918Z,11.80
2018-11-11T10:29:47.081Z,11.81
2018-11-11T10:30:54.097Z,11.83
2018-11-11T10:32:00.994Z,11.83
2018-11-11T10:33:07.740Z,11.83
2018-11-11T10:34:14.660Z,11.86
2018-11-11T10:35:21.566Z,11.85
2018-11-11T10:36:28.143Z,11.86
2018-11-11T10:37:35.134Z,11.88
2018-11-11T10:38:41.733Z,11.89
2018-11-11T10:39:48.474Z,11.89
2018-11-11T10:40:55.845Z,11.89
2018-11-11T10:42:02.087Z,11.91
2018-11-11T10:43:10.206Z,11.92
2018-11-11T10:44:18.327Z,11.93
2018-11-11T10:45:25.163Z,11.94
2018-11-11T10:46:31.798Z,11.94
2018-11-11T10:47:38.847Z,11.94
2018-11-11T10:48:45.455Z,11.95
2018-11-11T10:49:52.429Z,11.97
2018-11-11T10:50:59.299Z,11.97
2018-11-11T10:52:06.903Z,11.97
2018-11-11T10:53:13.230Z,11.97
2018-11-11T10:54:20.115Z,11.99
2018-11-11T10:55:26.990Z,12.00
2018-11-11T10:56:33.838Z,12.01
2018-11-11T10:57:40.806Z,12.01
2018-11-11T10:58:47.646Z,12.02
2018-11-11T10:59:54.494Z,12.02
2018-11-11T11:01:01.639Z,12.05
2018-11-11T11:02:08.513Z,12.04
2018-11-11T11:03:15.331Z,12.06
2018-11-11T11:04:22.287Z,12.06
2018-11-11T11:05:29.115Z,12.07
2018-11-11T11:06:35.891Z,12.09
2018-11-11T11:07:42.844Z,12.08
2018-11-11T11:08:49.616Z,12.10
2018-11-11T11:09:56.942Z,12.10
2018-11-11T11:11:03.214Z,12.11
2018-11-11T11:12:10.324Z,12.13
2018-11-11T11:13:16.812Z,12.13
2018-11-11T11:14:23.566Z,12.13
2018-11-11T11:15:30.386Z,12.14
2018-11-11T11:16:38.205Z,12.14
2018-11-11T11:17:44.142Z,12.16
2018-11-11T11:18:50.946Z,12.16
2018-11-11T11:19:58.967Z,12.18
2018-11-11T11:21:04.751Z,12.19
2018-11-11T11:22:11.584Z,12.20
2018-11-11T11:23:18.352Z,12.21
2018-11-11T11:24:25.194Z,12.21
2018-11-11T11:25:32.025Z,12.22
2018-11-11T11:26:38.755Z,12.24
2018-11-11T11:27:45.736Z,12.24
2018-11-11T11:28:52.488Z,12.26
2018-11-11T11:29:59.362Z,12.27
2018-11-11T11:31:06.167Z,12.28
2018-11-11T11:32:13.048Z,12.28
2018-11-11T11:33:19.761Z,12.29
2018-11-11T11:34:26.578Z,12.30
2018-11-11T11:35:33.382Z,12.30
2018-11-11T11:36:41.279Z,12.31
2018-11-11T11:37:47.098Z,12.32
2018-11-11T11:38:53.926Z,12.34
2018-11-11T11:40:01.371Z,12.33
2018-11-11T11:41:07.714Z,12.35
2018-11-11T11:42:14.446Z,12.36
2018-11-11T11:43:21.186Z,12.36
2018-11-11T11:44:27.950Z,12.38
2018-11-11T11:45:34.734Z,12.36
2018-11-11T11:46:41.505Z,12.38
2018-11-11T11:47:51.774Z,12.38
2018-11-11T11:48:56.450Z,12.38
2018-11-11T11:50:02.572Z,12.40
2018-11-11T11:51:09.769Z,12.40
2018-11-11T11:52:17.017Z,12.42
2018-11-11T11:53:23.833Z,12.41
2018-11-11T11:54:30.678Z,12.44
2018-11-11T11:55:40.149Z,12.47
2018-11-11T11:56:44.617Z,12.45
2018-11-11T11:57:51.382Z,12.48
2018-11-11T11:58:58.440Z,12.47
2018-11-11T12:00:05.200Z,12.49
2018-11-11T12:01:12.354Z,12.49
2018-11-11T12:02:19.341Z,12.49
2018-11-11T12:03:26.299Z,12.49
2018-11-11T12:04:33.198Z,12.51
2018-11-11T12:05:40.006Z,12.50
2018-11-11T12:06:46.874Z,12.50
2018-11-11T12:07:54.009Z,12.51
2018-11-11T12:09:03.186Z,12.53
2018-11-11T12:10:07.775Z,12.53
2018-11-11T12:11:14.692Z,12.53
2018-11-11T12:12:21.566Z,12.53
2018-11-11T12:13:29.362Z,12.53
2018-11-11T12:14:35.279Z,12.53
2018-11-11T12:15:42.239Z,12.53
2018-11-11T12:16:49.356Z,12.54
2018-11-11T12:17:56.220Z,12.54
2018-11-11T12:19:03.051Z,12.56
2018-11-11T12:20:09.758Z,12.55
2018-11-11T12:21:16.619Z,12.56
2018-11-11T12:22:23.478Z,12.56
2018-11-11T12:23:30.387Z,12.56
2018-11-11T12:24:37.162Z,12.57
2018-11-11T12:25:43.980Z,12.56
2018-11-11T12:26:50.784Z,12.56
2018-11-11T12:27:57.653Z,12.58
2018-11-11T12:29:04.423Z,12.58
2018-11-11T12:30:11.316Z,12.58
2018-11-11T12:31:18.160Z,12.57
2018-11-11T12:32:25.011Z,12.59
2018-11-11T12:33:31.847Z,12.58
2018-11-11T12:34:38.718Z,12.60
2018-11-11T12:35:45.563Z,12.59
2018-11-11T12:36:52.366Z,12.59
2018-11-11T12:37:59.216Z,12.59
2018-11-11T12:39:06.010Z,12.60
2018-11-11T12:40:12.985Z,12.60
2018-11-11T12:41:19.830Z,12.62
2018-11-11T12:42:26.706Z,12.61
2018-11-11T12:43:33.542Z,12.62
2018-11-11T12:44:40.503Z,12.63
2018-11-11T12:45:47.348Z,12.63
2018-11-11T12:46:54.248Z,12.62
2018-11-11T12:48:00.983Z,12.63
2018-11-11T12:49:08.055Z,12.64
2018-11-11T12:50:14.951Z,12.63
2018-11-11T12:51:21.827Z,12.65
2018-11-11T12:52:28.810Z,12.64
2018-11-11T12:53:35.669Z,12.66
2018-11-11T12:54:42.555Z,12.66
2018-11-11T12:55:49.422Z,12.67
2018-11-11T12:56:56.286Z,12.67
2018-11-11T12:58:03.157Z,12.66
2018-11-11T12:59:10.045Z,12.67
2018-11-11T13:00:16.933Z,12.67
2018-11-11T13:01:23.763Z,12.68
2018-11-11T13:02:30.772Z,12.68
2018-11-11T13:03:37.691Z,12.68
2018-11-11T13:04:44.606Z,12.69
2018-11-11T13:05:51.376Z,12.68
2018-11-11T13:06:58.256Z,12.68
2018-11-11T13:08:05.138Z,12.70
2018-11-11T13:09:12.033Z,12.70
2018-11-11T13:10:18.846Z,12.70
2018-11-11T13:11:25.734Z,12.71
2018-11-11T13:12:32.571Z,12.71
2018-11-11T13:13:39.393Z,12.72
2018-11-11T13:14:46.223Z,12.72
2018-11-11T13:15:53.097Z,12.72
2018-11-11T13:16:59.964Z,12.72
2018-11-11T13:18:06.838Z,12.72
2018-11-11T13:19:13.750Z,12.73
2018-11-11T13:20:20.612Z,12.74
2018-11-11T13:21:27.498Z,12.74
2018-11-11T13:22:34.411Z,12.74
2018-11-11T13:23:41.274Z,12.74
2018-11-11T13:24:48.205Z,12.75
2018-11-11T13:25:56.883Z,12.75
2018-11-11T13:27:01.895Z,12.75
2018-11-11T13:28:08.762Z,12.76
2018-11-11T13:29:15.605Z,12.77
2018-11-11T13:30:22.533Z,12.76
2018-11-11T13:31:29.371Z,12.76
2018-11-11T13:32:36.300Z,12.77
2018-11-11T13:33:43.454Z,12.76
2018-11-11T13:34:50.281Z,12.78
2018-11-11T13:35:57.076Z,12.77
2018-11-11T13:37:03.935Z,12.78
2018-11-11T13:38:10.829Z,12.78
2018-11-11T13:39:17.646Z,12.80
2018-11-11T13:40:24.455Z,12.80
2018-11-11T13:41:31.584Z,12.79
2018-11-11T13:42:38.632Z,12.79
2018-11-11T13:43:45.526Z,12.80
2018-11-11T13:44:52.351Z,12.81
2018-11-11T13:45:59.194Z,12.81
2018-11-11T13:47:06.085Z,12.80
2018-11-11T13:48:12.932Z,12.81
2018-11-11T13:49:19.751Z,12.81
2018-11-11T13:50:26.574Z,12.81
2018-11-11T13:51:33.324Z,12.82
2018-11-11T13:52:40.231Z,12.82
2018-11-11T13:53:47.221Z,12.82
2018-11-11T13:54:54.184Z,12.82
2018-11-11T13:56:01.168Z,12.85
2018-11-11T13:57:08.068Z,12.83
2018-11-11T13:58:15.062Z,12.83
2018-11-11T13:59:21.823Z,12.83
2018-11-11T14:00:28.666Z,12.85
2018-11-11T14:01:35.527Z,12.83
2018-11-11T14:02:42.373Z,12.84
2018-11-11T14:03:49.141Z,12.83
2018-11-11T14:04:55.900Z,12.86
2018-11-11T14:06:02.766Z,12.84
2018-11-11T14:07:09.487Z,12.85
2018-11-11T14:08:16.343Z,12.85
2018-11-11T14:09:23.028Z,12.86
2018-11-11T14:10:29.850Z,12.85
2018-11-11T14:11:36.600Z,12.86
2018-11-11T14:12:43.371Z,12.87
2018-11-11T14:13:50.253Z,12.86
2018-11-11T14:14:58.009Z,12.87
2018-11-11T14:16:03.819Z,12.88
2018-11-11T14:17:10.609Z,12.87
2018-11-11T14:18:17.525Z,12.87
2018-11-11T14:19:24.313Z,12.89
2018-11-11T14:20:30.940Z,12.88
2018-11-11T14:21:37.681Z,12.89
2018-11-11T14:22:44.412Z,12.90